^^
Datos históricos de la estación: Murcia-Puente Tocinos
Diario Informe para Septiembre 26, 2021 Unidades:  Ambas    Ingés   Métrico
Diario Semanal Mensual Anual
  Máxima: Mínima: Promedio:
Temperatura: 86.5 °F /  30.3 °C 71.8 °F /  22.1 °C 77.9 °F /  25.5 °C
Punto de rocio: 70 °F /  21.1 °C 52.7 °F /  11.5 °C 58.8 °F /  14.9 °C
Humedad: 85% 33% 54%
Velocidad viento: 8.1mph /  13km/h - 4.7mph /  7.6km/h
Racha viento: 15mph /  24.1km/h - -
Viento- - SSO
Presión: 30.1 in /  1019.5 hPa 30 in /  1016.3 hPa -
Precipitación: 0 in /  0.0 mm    
 
 
Tabla de datos para Septiembre 26, 2021
Hora Temperatura Punto de rocio Presión Viento Velocidad viento Racha viento Humedad Intensidad lluvia(por hora) Nubes
00:04 75.7 °F /  24.3 °C 69.8 °F /  21 °C 30in /  1016.7hPa ESE 3.1mph /  5km/h 3.6mph /  5.8km/h 82% 0in /  0.0mm
00:09 75.6 °F /  24.2 °C 69.8 °F /  21 °C 30in /  1016.7hPa ESE 2.7mph /  4.3km/h 2.4mph /  3.9km/h 82% 0in /  0.0mm
00:14 75.6 °F /  24.2 °C 69.8 °F /  21 °C 30in /  1016.7hPa ESE 1.8mph /  2.9km/h 2.9mph /  4.7km/h 82% 0in /  0.0mm
00:19 75.7 °F /  24.3 °C 69.8 °F /  21 °C 30in /  1016.7hPa SE 1.7mph /  2.7km/h 2.9mph /  4.7km/h 82% 0in /  0.0mm
00:24 75.7 °F /  24.3 °C 70 °F /  21.1 °C 30in /  1017.0hPa SSE 1.4mph /  2.3km/h 5.9mph /  9.5km/h 82% 0in /  0.0mm
00:29 75.6 °F /  24.2 °C 69.8 °F /  21 °C 30in /  1017.0hPa NO 1.9mph /  3km/h 5.8mph /  9.3km/h 82% 0in /  0.0mm
00:34 75.6 °F /  24.2 °C 69.6 °F /  20.9 °C 30in /  1017.0hPa NO 2.9mph /  4.7km/h 3.6mph /  5.8km/h 82% 0in /  0.0mm
00:39 75.4 °F /  24.1 °C 69.6 °F /  20.9 °C 30in /  1017.0hPa North 2.6mph /  4.2km/h 4.6mph /  7.4km/h 82% 0in /  0.0mm
00:44 75.4 °F /  24.1 °C 69.6 °F /  20.9 °C 30in /  1016.8hPa NNE 2mph /  3.2km/h 2.9mph /  4.7km/h 82.3% 0in /  0.0mm
00:49 75.4 °F /  24.1 °C 69.8 °F /  21 °C 30in /  1016.8hPa ESE 1.9mph /  3.1km/h 4.7mph /  7.6km/h 83% 0in /  0.0mm
00:54 75.4 °F /  24.1 °C 70 °F /  21.1 °C 30in /  1016.8hPa SSE 1.8mph /  2.9km/h 4.6mph /  7.4km/h 83% 0in /  0.0mm
00:59 75.4 °F /  24.1 °C 69.8 °F /  21 °C 30in /  1016.8hPa SSE 2.2mph /  3.6km/h 4.6mph /  7.4km/h 82.9% 0in /  0.0mm
01:04 75.4 °F /  24.1 °C 69.4 °F /  20.8 °C 30in /  1016.8hPa Sur 2.9mph /  4.7km/h 4.6mph /  7.4km/h 82% 0in /  0.0mm
01:09 75.4 °F /  24.1 °C 69.4 °F /  20.8 °C 30in /  1016.8hPa Sur 2.7mph /  4.4km/h 3.5mph /  5.6km/h 82% 0in /  0.0mm
01:14 75.4 °F /  24.1 °C 69.6 °F /  20.9 °C 30in /  1016.8hPa Sur 2.4mph /  3.9km/h 2.4mph /  3.9km/h 82% 0in /  0.0mm
01:19 75.6 °F /  24.2 °C 69.6 °F /  20.9 °C 30in /  1016.8hPa Sur 2.1mph /  3.3km/h 3.6mph /  5.8km/h 82% 0in /  0.0mm
01:24 75.6 °F /  24.2 °C 69.6 °F /  20.9 °C 30in /  1016.8hPa SO 1.4mph /  2.3km/h 4.6mph /  7.4km/h 82% 0in /  0.0mm
01:29 75.4 °F /  24.1 °C 69.6 °F /  20.9 °C 30in /  1016.6hPa OSO 1.9mph /  3.1km/h 7.4mph /  11.9km/h 82% 0in /  0.0mm
01:34 75.4 °F /  24.1 °C 69.4 °F /  20.8 °C 30in /  1016.6hPa OSO 2.9mph /  4.7km/h 6.2mph /  10km/h 82% 0in /  0.0mm
01:39 75.4 °F /  24.1 °C 69.4 °F /  20.8 °C 30in /  1016.6hPa SO 3mph /  4.8km/h 5.4mph /  8.7km/h 82% 0in /  0.0mm
01:44 75.4 °F /  24.1 °C 69.4 °F /  20.8 °C 30in /  1016.6hPa SO 3.1mph /  5km/h 7.4mph /  11.9km/h 82% 0in /  0.0mm
01:49 75.4 °F /  24.1 °C 69.4 °F /  20.8 °C 30in /  1016.6hPa SO 3.4mph /  5.5km/h 8.1mph /  13km/h 82% 0in /  0.0mm
01:54 75.4 °F /  24.1 °C 69.4 °F /  20.8 °C 30in /  1016.6hPa SO 4mph /  6.4km/h 8.1mph /  13km/h 82% 0in /  0.0mm
01:59 75.4 °F /  24.1 °C 69.4 °F /  20.8 °C 30in /  1016.5hPa SO 4.1mph /  6.6km/h 6.9mph /  11.1km/h 82% 0in /  0.0mm
02:04 75.4 °F /  24.1 °C 69.4 °F /  20.8 °C 30in /  1016.5hPa OSO 4.3mph /  6.9km/h 6.9mph /  11.1km/h 82% 0in /  0.0mm
02:09 75.2 °F /  24 °C 69.3 °F /  20.7 °C 30in /  1016.5hPa SO 4.2mph /  6.8km/h 6.9mph /  11.1km/h 82% 0in /  0.0mm
02:14 75 °F /  23.9 °C 69.1 °F /  20.6 °C 30in /  1016.5hPa SO 4mph /  6.4km/h 5.2mph /  8.4km/h 82% 0in /  0.0mm
02:19 75 °F /  23.9 °C 69.1 °F /  20.6 °C 30in /  1016.5hPa SSO 3.7mph /  5.9km/h 5.9mph /  9.5km/h 82% 0in /  0.0mm
02:24 75 °F /  23.9 °C 69.4 °F /  20.8 °C 30in /  1016.5hPa SSO 3.1mph /  5km/h 5.9mph /  9.5km/h 82.9% 0in /  0.0mm
02:29 74.8 °F /  23.8 °C 69.3 °F /  20.7 °C 30in /  1016.4hPa SSO 3.6mph /  5.8km/h 8.1mph /  13km/h 83% 0in /  0.0mm
02:34 74.7 °F /  23.7 °C 69.3 °F /  20.7 °C 30in /  1016.4hPa SSO 4.7mph /  7.6km/h 8.1mph /  13km/h 83% 0in /  0.0mm
02:39 74.7 °F /  23.7 °C 69.3 °F /  20.7 °C 30in /  1016.4hPa SSO 4.7mph /  7.6km/h 6.9mph /  11.1km/h 83.2% 0in /  0.0mm
02:44 74.5 °F /  23.6 °C 69.3 °F /  20.7 °C 30in /  1016.3hPa SSO 4.7mph /  7.6km/h 8.1mph /  13km/h 84% 0in /  0.0mm
02:49 74.5 °F /  23.6 °C 69.3 °F /  20.7 °C 30in /  1016.3hPa SSO 4.7mph /  7.6km/h 6.9mph /  11.1km/h 84% 0in /  0.0mm
02:54 74.3 °F /  23.5 °C 69.1 °F /  20.6 °C 30in /  1016.3hPa SO 4.7mph /  7.6km/h 7.4mph /  11.9km/h 84% 0in /  0.0mm
02:59 74.1 °F /  23.4 °C 69.1 °F /  20.6 °C 30in /  1016.3hPa SO 4.6mph /  7.4km/h 7.4mph /  11.9km/h 84% 0in /  0.0mm
03:04 74.1 °F /  23.4 °C 69.3 °F /  20.7 °C 30in /  1016.3hPa SO 4.3mph /  6.9km/h 6.9mph /  11.1km/h 84.7% 0in /  0.0mm
03:09 73.9 °F /  23.3 °C 69.3 °F /  20.7 °C 30in /  1016.5hPa SO 4.3mph /  6.9km/h 6.9mph /  11.1km/h 85% 0in /  0.0mm
03:14 73.9 °F /  23.3 °C 69.1 °F /  20.6 °C 30in /  1016.5hPa SO 4.3mph /  6.9km/h 6.2mph /  10km/h 85% 0in /  0.0mm
03:19 73.9 °F /  23.3 °C 68.9 °F /  20.5 °C 30in /  1016.5hPa SO 4.3mph /  6.9km/h 6.9mph /  11.1km/h 84.5% 0in /  0.0mm
03:24 73.8 °F /  23.2 °C 68.5 °F /  20.3 °C 30in /  1016.7hPa SO 4.3mph /  6.9km/h 7.4mph /  11.9km/h 84% 0in /  0.0mm
03:29 73.8 °F /  23.2 °C 68.5 °F /  20.3 °C 30in /  1016.7hPa SO 4.2mph /  6.8km/h 8.1mph /  13km/h 83.7% 0in /  0.0mm
03:34 73.6 °F /  23.1 °C 67.8 °F /  19.9 °C 30in /  1016.7hPa SO 4mph /  6.4km/h 8.1mph /  13km/h 82.3% 0in /  0.0mm
03:39 73.4 °F /  23 °C 67.3 °F /  19.6 °C 30in /  1016.7hPa SO 4.4mph /  7.1km/h 9.2mph /  14.8km/h 81.1% 0in /  0.0mm
03:44 73.2 °F /  22.9 °C 66.4 °F /  19.1 °C 30in /  1016.6hPa SO 5.2mph /  8.4km/h 8.1mph /  13km/h 79.4% 0in /  0.0mm
03:49 73.2 °F /  22.9 °C 65.8 °F /  18.8 °C 30in /  1016.6hPa SO 5mph /  8.1km/h 6.9mph /  11.1km/h 77.7% 0in /  0.0mm
03:54 73.2 °F /  22.9 °C 64.9 °F /  18.3 °C 30in /  1016.7hPa SSO 4.7mph /  7.6km/h 7.4mph /  11.9km/h 75.6% 0in /  0.0mm
03:59 73 °F /  22.8 °C 63.9 °F /  17.7 °C 30in /  1016.7hPa SO 4.7mph /  7.6km/h 8.1mph /  13km/h 73% 0in /  0.0mm
04:04 73 °F /  22.8 °C 63.1 °F /  17.3 °C 30in /  1016.7hPa SSO 4.7mph /  7.6km/h 9.2mph /  14.8km/h 71.1% 0in /  0.0mm
04:09 73 °F /  22.8 °C 62.8 °F /  17.1 °C 30in /  1016.8hPa SSO 4.8mph /  7.8km/h 8.1mph /  13km/h 70% 0in /  0.0mm
04:14 73 °F /  22.8 °C 62.2 °F /  16.8 °C 30in /  1016.8hPa SSO 5.2mph /  8.4km/h 9.7mph /  15.6km/h 68.9% 0in /  0.0mm
04:19 72.9 °F /  22.7 °C 61.5 °F /  16.4 °C 30in /  1016.8hPa SSO 5.4mph /  8.7km/h 9.2mph /  14.8km/h 67.5% 0in /  0.0mm
04:24 72.9 °F /  22.7 °C 61 °F /  16.1 °C 30in /  1016.8hPa SSO 5.9mph /  9.5km/h 9.7mph /  15.6km/h 66.3% 0in /  0.0mm
04:29 72.9 °F /  22.7 °C 60.6 °F /  15.9 °C 30in /  1016.8hPa SSO 5.9mph /  9.5km/h 8.5mph /  13.7km/h 65.7% 0in /  0.0mm
04:34 72.7 °F /  22.6 °C 60.3 °F /  15.7 °C 30in /  1016.8hPa SSO 5.9mph /  9.5km/h 7.4mph /  11.9km/h 65% 0in /  0.0mm
04:39 72.7 °F /  22.6 °C 60.3 °F /  15.7 °C 30in /  1016.8hPa SSO 5.5mph /  8.8km/h 8.1mph /  13km/h 65% 0in /  0.0mm
04:44 72.5 °F /  22.5 °C 60.1 °F /  15.6 °C 30in /  1016.8hPa SSO 4.7mph /  7.6km/h 7.4mph /  11.9km/h 64.8% 0in /  0.0mm
04:49 72.3 °F /  22.4 °C 59.5 °F /  15.3 °C 30in /  1016.8hPa SSO 4.6mph /  7.4km/h 8.7mph /  14km/h 64% 0in /  0.0mm
04:54 72.3 °F /  22.4 °C 59.4 °F /  15.2 °C 30in /  1016.8hPa SSO 4.3mph /  6.9km/h 9.2mph /  14.8km/h 63.6% 0in /  0.0mm
04:59 72.3 °F /  22.4 °C 59 °F /  15 °C 30in /  1016.8hPa SO 4.6mph /  7.4km/h 8.5mph /  13.7km/h 63% 0in /  0.0mm
05:04 72.3 °F /  22.4 °C 59 °F /  15 °C 30in /  1016.8hPa SO 5.2mph /  8.4km/h 9.2mph /  14.8km/h 63% 0in /  0.0mm
05:09 72.3 °F /  22.4 °C 58.8 °F /  14.9 °C 30in /  1016.8hPa SO 5.2mph /  8.4km/h 7.4mph /  11.9km/h 62.7% 0in /  0.0mm
05:14 72.3 °F /  22.4 °C 58.6 °F /  14.8 °C 30in /  1016.8hPa SO 5.2mph /  8.4km/h 9.2mph /  14.8km/h 62% 0in /  0.0mm
05:19 72.3 °F /  22.4 °C 58.5 °F /  14.7 °C 30in /  1016.8hPa SSO 5.3mph /  8.5km/h 8.5mph /  13.7km/h 61.7% 0in /  0.0mm
05:24 72.5 °F /  22.5 °C 58.3 °F /  14.6 °C 30in /  1016.9hPa SO 5.4mph /  8.7km/h 8.1mph /  13km/h 61% 0in /  0.0mm
05:29 72.5 °F /  22.5 °C 58.3 °F /  14.6 °C 30in /  1016.9hPa SO 5.3mph /  8.6km/h 11.5mph /  18.5km/h 61% 0in /  0.0mm
05:34 72.5 °F /  22.5 °C 58.1 °F /  14.5 °C 30in /  1016.9hPa SO 5.2mph /  8.4km/h 9.7mph /  15.6km/h 60.5% 0in /  0.0mm
05:39 72.3 °F /  22.4 °C 57.7 °F /  14.3 °C 30in /  1016.9hPa SO 5.4mph /  8.7km/h 10.4mph /  16.7km/h 60% 0in /  0.0mm
05:44 72.3 °F /  22.4 °C 57.7 °F /  14.3 °C 30in /  1016.9hPa SO 5.9mph /  9.5km/h 9.7mph /  15.6km/h 60% 0in /  0.0mm
05:49 72.3 °F /  22.4 °C 57.7 °F /  14.3 °C 30in /  1016.9hPa SO 5.5mph /  8.9km/h 6.9mph /  11.1km/h 60% 0in /  0.0mm
05:54 72.3 °F /  22.4 °C 57.7 °F /  14.3 °C 30in /  1016.9hPa SO 4.7mph /  7.6km/h 6.9mph /  11.1km/h 60% 0in /  0.0mm
05:59 72.1 °F /  22.3 °C 57.6 °F /  14.2 °C 30in /  1016.9hPa SO 4.5mph /  7.2km/h 5.9mph /  9.5km/h 60% 0in /  0.0mm
06:04 72.3 °F /  22.4 °C 57.6 °F /  14.2 °C 30in /  1016.9hPa SO 4mph /  6.4km/h 6.2mph /  10km/h 60% 0in /  0.0mm
06:09 72.3 °F /  22.4 °C 57.7 °F /  14.3 °C 30in /  1017.0hPa SO 4mph /  6.4km/h 6.9mph /  11.1km/h 60% 0in /  0.0mm
06:14 72.3 °F /  22.4 °C 57.2 °F /  14 °C 30in /  1017.0hPa SO 4mph /  6.4km/h 8.1mph /  13km/h 59% 0in /  0.0mm
06:19 72.1 °F /  22.3 °C 57 °F /  13.9 °C 30in /  1017.0hPa SO 4.2mph /  6.8km/h 8.5mph /  13.7km/h 59% 0in /  0.0mm
06:24 72.1 °F /  22.3 °C 57.2 °F /  14 °C 30in /  1017.1hPa SO 4.7mph /  7.6km/h 6.9mph /  11.1km/h 59.4% 0in /  0.0mm
06:29 72 °F /  22.2 °C 57.4 °F /  14.1 °C 30in /  1017.1hPa SO 4.6mph /  7.4km/h 6.2mph /  10km/h 59.9% 0in /  0.0mm
06:34 72 °F /  22.2 °C 57.4 °F /  14.1 °C 30in /  1017.1hPa SO 4.3mph /  6.9km/h 6.9mph /  11.1km/h 60% 0in /  0.0mm
06:39 72 °F /  22.2 °C 57.4 °F /  14.1 °C 30in /  1017.2hPa SO 4.3mph /  6.9km/h 7.4mph /  11.9km/h 60% 0in /  0.0mm
06:44 72 °F /  22.2 °C 57.2 °F /  14 °C 30in /  1017.2hPa SO 4.3mph /  6.9km/h 7.4mph /  11.9km/h 60% 0in /  0.0mm
06:49 71.8 °F /  22.1 °C 56.8 °F /  13.8 °C 30in /  1017.2hPa SO 4.4mph /  7.1km/h 8.7mph /  14km/h 59.6% 0in /  0.0mm
06:54 71.8 °F /  22.1 °C 56.7 °F /  13.7 °C 30in /  1017.2hPa SO 4.7mph /  7.6km/h 9.2mph /  14.8km/h 59% 0in /  0.0mm
06:59 72 °F /  22.2 °C 56.8 °F /  13.8 °C 30in /  1017.2hPa SSO 5mph /  8km/h 9.2mph /  14.8km/h 59% 0in /  0.0mm
07:04 72 °F /  22.2 °C 56.8 °F /  13.8 °C 30in /  1017.2hPa SO 5.4mph /  8.7km/h 8.1mph /  13km/h 59% 0in /  0.0mm
07:09 72 °F /  22.2 °C 56.5 °F /  13.6 °C 30in /  1017.4hPa SSO 5.2mph /  8.3km/h 8.1mph /  13km/h 58.3% 0in /  0.0mm
07:14 72 °F /  22.2 °C 56.5 °F /  13.6 °C 30in /  1017.4hPa SSO 4.7mph /  7.6km/h 9.2mph /  14.8km/h 58% 0in /  0.0mm
07:19 72 °F /  22.2 °C 56.5 °F /  13.6 °C 30in /  1017.4hPa SO 4.8mph /  7.8km/h 7.4mph /  11.9km/h 58% 0in /  0.0mm
07:24 72 °F /  22.2 °C 56.1 °F /  13.4 °C 30.1in /  1017.5hPa SSO 5.2mph /  8.4km/h 9.2mph /  14.8km/h 57.5% 0in /  0.0mm
07:29 72 °F /  22.2 °C 55.9 °F /  13.3 °C 30.1in /  1017.5hPa SSO 5.3mph /  8.5km/h 10.4mph /  16.7km/h 57% 0in /  0.0mm
07:34 72.1 °F /  22.3 °C 56.1 °F /  13.4 °C 30.1in /  1017.5hPa SO 5.4mph /  8.7km/h 10.4mph /  16.7km/h 57% 0in /  0.0mm
07:39 72.1 °F /  22.3 °C 56.1 °F /  13.4 °C 30.1in /  1017.7hPa SSO 5.6mph /  9km/h 10.4mph /  16.7km/h 57% 0in /  0.0mm
07:44 72.1 °F /  22.3 °C 55.9 °F /  13.3 °C 30.1in /  1017.7hPa SSO 5.9mph /  9.5km/h 11.5mph /  18.5km/h 56.8% 0in /  0.0mm
07:49 72.1 °F /  22.3 °C 55.8 °F /  13.2 °C 30.1in /  1017.7hPa SSO 6.1mph /  9.8km/h 11.8mph /  19km/h 56.4% 0in /  0.0mm
07:54 72.1 °F /  22.3 °C 55.9 °F /  13.3 °C 30.1in /  1017.9hPa SSO 6.4mph /  10.3km/h 11.5mph /  18.5km/h 56.5% 0in /  0.0mm
07:59 72 °F /  22.2 °C 55.9 °F /  13.3 °C 30.1in /  1017.9hPa SSO 6.6mph /  10.6km/h 10.7mph /  17.2km/h 57% 0in /  0.0mm
08:04 72 °F /  22.2 °C 55.9 °F /  13.3 °C 30.1in /  1017.9hPa SSO 6.9mph /  11.1km/h 10.7mph /  17.2km/h 57% 0in /  0.0mm
08:09 72 °F /  22.2 °C 55.9 °F /  13.3 °C 30.1in /  1018.0hPa SO 6.7mph /  10.8km/h 10mph /  16.1km/h 57% 0in /  0.0mm
08:14 72 °F /  22.2 °C 55.9 °F /  13.3 °C 30.1in /  1018.0hPa SSO 6.4mph /  10.3km/h 10.4mph /  16.7km/h 57% 0in /  0.0mm
08:19 72 °F /  22.2 °C 55.9 °F /  13.3 °C 30.1in /  1018.0hPa SSO 6.4mph /  10.3km/h 9.7mph /  15.6km/h 57% 0in /  0.0mm
08:24 72 °F /  22.2 °C 55.9 °F /  13.3 °C 30.1in /  1018.2hPa SSO 6.4mph /  10.3km/h 10.4mph /  16.7km/h 57% 0in /  0.0mm
08:29 72 °F /  22.2 °C 55.9 °F /  13.3 °C 30.1in /  1018.2hPa SSO 6.3mph /  10.2km/h 10.4mph /  16.7km/h 56.9% 0in /  0.0mm
08:34 72.1 °F /  22.3 °C 55.9 °F /  13.3 °C 30.1in /  1018.2hPa SSO 6.2mph /  10km/h 10.4mph /  16.7km/h 56.7% 0in /  0.0mm
08:39 72.1 °F /  22.3 °C 55.8 °F /  13.2 °C 30.1in /  1018.5hPa SSO 6.3mph /  10.1km/h 11.5mph /  18.5km/h 56.3% 0in /  0.0mm
08:44 72.1 °F /  22.3 °C 56.1 °F /  13.4 °C 30.1in /  1018.5hPa SSO 6.4mph /  10.3km/h 10.4mph /  16.7km/h 57% 0in /  0.0mm
08:49 72 °F /  22.2 °C 55.9 °F /  13.3 °C 30.1in /  1018.5hPa SO 6.3mph /  10.2km/h 11.5mph /  18.5km/h 57% 0in /  0.0mm
08:54 72.1 °F /  22.3 °C 55.9 °F /  13.3 °C 30.1in /  1018.6hPa SSO 6.2mph /  10km/h 12.7mph /  20.4km/h 56.6% 0in /  0.0mm
08:59 72.5 °F /  22.5 °C 55.9 °F /  13.3 °C 30.1in /  1018.6hPa SSO 6.6mph /  10.7km/h 11.5mph /  18.5km/h 56% 0in /  0.0mm
09:04 72.9 °F /  22.7 °C 56.1 °F /  13.4 °C 30.1in /  1018.6hPa SSO 7.4mph /  11.9km/h 13.8mph /  22.2km/h 56% 0in /  0.0mm
09:09 72.9 °F /  22.7 °C 56.3 °F /  13.5 °C 30.1in /  1018.6hPa SSO 7.6mph /  12.3km/h 11.8mph /  19km/h 56% 0in /  0.0mm
09:14 73 °F /  22.8 °C 56.3 °F /  13.5 °C 30.1in /  1018.6hPa SSO 8.1mph /  13km/h 13.7mph /  22km/h 55.9% 0in /  0.0mm
09:19 73 °F /  22.8 °C 55.9 °F /  13.3 °C 30.1in /  1018.6hPa SSO 7.9mph /  12.7km/h 13.8mph /  22.2km/h 55% 0in /  0.0mm
09:24 73.2 °F /  22.9 °C 56.1 °F /  13.4 °C 30.1in /  1018.8hPa SSO 7.4mph /  11.9km/h 10.7mph /  17.2km/h 55% 0in /  0.0mm
09:29 73.6 °F /  23.1 °C 56.3 °F /  13.5 °C 30.1in /  1018.8hPa SSO 7.1mph /  11.4km/h 11.5mph /  18.5km/h 55% 0in /  0.0mm
09:34 73.8 °F /  23.2 °C 56.3 °F /  13.5 °C 30.1in /  1018.8hPa SSO 6.4mph /  10.3km/h 13.8mph /  22.2km/h 54.5% 0in /  0.0mm
09:39 73.8 °F /  23.2 °C 56.3 °F /  13.5 °C 30.1in /  1018.8hPa SO 6.7mph /  10.8km/h 12.7mph /  20.4km/h 54.2% 0in /  0.0mm
09:44 73.9 °F /  23.3 °C 56.3 °F /  13.5 °C 30.1in /  1018.8hPa SSO 7.4mph /  11.9km/h 11.5mph /  18.5km/h 54% 0in /  0.0mm
09:49 74.1 °F /  23.4 °C 56.3 °F /  13.5 °C 30.1in /  1018.8hPa SO 7.3mph /  11.7km/h 10.7mph /  17.2km/h 53.8% 0in /  0.0mm
09:54 74.5 °F /  23.6 °C 56.1 °F /  13.4 °C 30.1in /  1018.9hPa SO 6.9mph /  11.1km/h 12.7mph /  20.4km/h 53% 0in /  0.0mm
09:59 74.7 °F /  23.7 °C 56.5 °F /  13.6 °C 30.1in /  1018.9hPa SO 6.6mph /  10.7km/h 10.7mph /  17.2km/h 53% 0in /  0.0mm
10:04 74.7 °F /  23.7 °C 56.5 °F /  13.6 °C 30.1in /  1018.9hPa SO 6.2mph /  10km/h 10.4mph /  16.7km/h 53% 0in /  0.0mm
10:09 74.8 °F /  23.8 °C 56.7 °F /  13.7 °C 30.1in /  1019.1hPa SO 6mph /  9.6km/h 10.4mph /  16.7km/h 53% 0in /  0.0mm
10:14 75 °F /  23.9 °C 56.8 °F /  13.8 °C 30.1in /  1019.1hPa SO 5.4mph /  8.7km/h 9.2mph /  14.8km/h 53% 0in /  0.0mm
10:19 75.6 °F /  24.2 °C 57 °F /  13.9 °C 30.1in /  1019.1hPa SO 5.2mph /  8.3km/h 6.9mph /  11.1km/h 52.9% 0in /  0.0mm
10:24 75.7 °F /  24.3 °C 57 °F /  13.9 °C 30.1in /  1019.2hPa SO 4.7mph /  7.6km/h 8.1mph /  13km/h 52.1% 0in /  0.0mm
10:29 76.1 °F /  24.5 °C 56.7 °F /  13.7 °C 30.1in /  1019.2hPa OSO 4.6mph /  7.4km/h 8.1mph /  13km/h 51% 0in /  0.0mm
10:34 76.3 °F /  24.6 °C 56.8 °F /  13.8 °C 30.1in /  1019.2hPa SO 4.3mph /  6.9km/h 9.2mph /  14.8km/h 51% 0in /  0.0mm
10:39 76.5 °F /  24.7 °C 56.8 °F /  13.8 °C 30.1in /  1019.3hPa OSO 4.2mph /  6.8km/h 6.9mph /  11.1km/h 50.8% 0in /  0.0mm
10:44 76.6 °F /  24.8 °C 56.3 °F /  13.5 °C 30.1in /  1019.3hPa OSO 4mph /  6.4km/h 10.7mph /  17.2km/h 49.6% 0in /  0.0mm
10:49 76.6 °F /  24.8 °C 56.5 °F /  13.6 °C 30.1in /  1019.3hPa SO 4.5mph /  7.2km/h 9.7mph /  15.6km/h 49.6% 0in /  0.0mm
10:54 77 °F /  25 °C 55.9 °F /  13.3 °C 30.1in /  1019.5hPa OSO 5.4mph /  8.7km/h 10.4mph /  16.7km/h 48.2% 0in /  0.0mm
10:59 77.4 °F /  25.2 °C 55.8 °F /  13.2 °C 30.1in /  1019.5hPa OSO 5.6mph /  9km/h 11.4mph /  18.3km/h 47.5% 0in /  0.0mm
11:04 77.5 °F /  25.3 °C 55.8 °F /  13.2 °C 30.1in /  1019.5hPa OSO 5.9mph /  9.5km/h 11.5mph /  18.5km/h 47% 0in /  0.0mm
11:09 77.7 °F /  25.4 °C 55.8 °F /  13.2 °C 30.1in /  1019.5hPa OSO 6.2mph /  10km/h 11.5mph /  18.5km/h 46.6% 0in /  0.0mm
11:14 77.9 °F /  25.5 °C 55.2 °F /  12.9 °C 30.1in /  1019.5hPa OSO 6.9mph /  11.1km/h 15mph /  24.1km/h 45.6% 0in /  0.0mm
11:19 78.1 °F /  25.6 °C 55.4 °F /  13 °C 30.1in /  1019.5hPa OSO 6.7mph /  10.8km/h 11.5mph /  18.5km/h 45.6% 0in /  0.0mm
11:24 78.4 °F /  25.8 °C 55.6 °F /  13.1 °C 30.1in /  1019.5hPa OSO 6.4mph /  10.3km/h 14.7mph /  23.7km/h 45.4% 0in /  0.0mm
11:29 78.6 °F /  25.9 °C 55.4 °F /  13 °C 30.1in /  1019.4hPa OSO 6.2mph /  10km/h 15mph /  24.1km/h 44.7% 0in /  0.0mm
11:34 79 °F /  26.1 °C 55.4 °F /  13 °C 30.1in /  1019.4hPa OSO 5.9mph /  9.5km/h 10.4mph /  16.7km/h 44.4% 0in /  0.0mm
11:39 79 °F /  26.1 °C 55.2 °F /  12.9 °C 30.1in /  1019.5hPa OSO 6mph /  9.7km/h 10.4mph /  16.7km/h 44.1% 0in /  0.0mm
11:44 79.2 °F /  26.2 °C 55.4 °F /  13 °C 30.1in /  1019.5hPa OSO 6.2mph /  10km/h 10.4mph /  16.7km/h 44% 0in /  0.0mm
11:49 79.2 °F /  26.2 °C 55 °F /  12.8 °C 30.1in /  1019.5hPa SO 6.4mph /  10.3km/h 13.8mph /  22.2km/h 43.5% 0in /  0.0mm
11:54 79.3 °F /  26.3 °C 54.9 °F /  12.7 °C 30.1in /  1019.5hPa OSO 6.9mph /  11.1km/h 10.4mph /  16.7km/h 43% 0in /  0.0mm
11:59 79.5 °F /  26.4 °C 55.4 °F /  13 °C 30.1in /  1019.5hPa SO 6.6mph /  10.7km/h 9.2mph /  14.8km/h 43.7% 0in /  0.0mm
12:04 79.9 °F /  26.6 °C 55.2 °F /  12.9 °C 30.1in /  1019.5hPa SSO 6.2mph /  10km/h 9.2mph /  14.8km/h 42.8% 0in /  0.0mm
12:09 79.9 °F /  26.6 °C 55.2 °F /  12.9 °C 30.1in /  1019.5hPa OSO 6mph /  9.6km/h 7.4mph /  11.9km/h 42.7% 0in /  0.0mm
12:14 80.2 °F /  26.8 °C 55.4 °F /  13 °C 30.1in /  1019.4hPa OSO 5.4mph /  8.7km/h 8.1mph /  13km/h 42.6% 0in /  0.0mm
12:19 80.8 °F /  27.1 °C 55.4 °F /  13 °C 30.1in /  1019.4hPa OSO 4.7mph /  7.5km/h 10.7mph /  17.2km/h 41.7% 0in /  0.0mm
12:24 81.1 °F /  27.3 °C 55 °F /  12.8 °C 30.1in /  1019.4hPa Oeste 3.1mph /  5km/h 8.1mph /  13km/h 40.8% 0in /  0.0mm
12:29 81.1 °F /  27.3 °C 54.7 °F /  12.6 °C 30.1in /  1019.3hPa OSO 3.4mph /  5.5km/h 8.1mph /  13km/h 40.2% 0in /  0.0mm
12:34 81.5 °F /  27.5 °C 54.9 °F /  12.7 °C 30.1in /  1019.3hPa OSO 4mph /  6.4km/h 8.5mph /  13.7km/h 40% 0in /  0.0mm
12:39 81.7 °F /  27.6 °C 54.3 °F /  12.4 °C 30.1in /  1019.3hPa OSO 4.4mph /  7.1km/h 10mph /  16.1km/h 39.1% 0in /  0.0mm
12:44 81.9 °F /  27.7 °C 54.5 °F /  12.5 °C 30.1in /  1019.1hPa Oeste 5.2mph /  8.4km/h 11.8mph /  19km/h 38.9% 0in /  0.0mm
12:49 82 °F /  27.8 °C 54 °F /  12.2 °C 30.1in /  1019.1hPa SO 5mph /  8.1km/h 11.5mph /  18.5km/h 38% 0in /  0.0mm
12:54 82.4 °F /  28 °C 53.6 °F /  12 °C 30.1in /  1019.1hPa OSO 4.7mph /  7.6km/h 11.5mph /  18.5km/h 37% 0in /  0.0mm
12:59 82.8 °F /  28.2 °C 53.4 °F /  11.9 °C 30.1in /  1019.0hPa OSO 5mph /  8km/h 12.3mph /  19.8km/h 36.5% 0in /  0.0mm
13:04 82.6 °F /  28.1 °C 54 °F /  12.2 °C 30.1in /  1019.0hPa OSO 5.4mph /  8.7km/h 12.7mph /  20.4km/h 37.3% 0in /  0.0mm
13:09 82.8 °F /  28.2 °C 53.4 °F /  11.9 °C 30.1in /  1019.0hPa OSO 5.7mph /  9.2km/h 10.4mph /  16.7km/h 36.4% 0in /  0.0mm
13:14 82.8 °F /  28.2 °C 53.1 °F /  11.7 °C 30.1in /  1018.9hPa Oeste 6.4mph /  10.3km/h 9.2mph /  14.8km/h 36% 0in /  0.0mm
13:19 82.8 °F /  28.2 °C 53.1 °F /  11.7 °C 30.1in /  1018.9hPa OSO 6.3mph /  10.2km/h 10.7mph /  17.2km/h 36% 0in /  0.0mm
13:24 82.9 °F /  28.3 °C 53.2 °F /  11.8 °C 30.1in /  1018.9hPa OSO 6.2mph /  10km/h 13mph /  20.9km/h 36% 0in /  0.0mm
13:29 82.9 °F /  28.3 °C 52.7 °F /  11.5 °C 30.1in /  1018.7hPa OSO 6.4mph /  10.3km/h 11.5mph /  18.5km/h 35.3% 0in /  0.0mm
13:34 82.9 °F /  28.3 °C 53.2 °F /  11.8 °C 30.1in /  1018.7hPa SO 6.9mph /  11.1km/h 10.2mph /  16.4km/h 36% 0in /  0.0mm
13:39 83.5 °F /  28.6 °C 52.9 °F /  11.6 °C 30.1in /  1018.7hPa OSO 6.4mph /  10.3km/h 13.7mph /  22km/h 35% 0in /  0.0mm
13:44 83.7 °F /  28.7 °C 52.9 °F /  11.6 °C 30.1in /  1018.7hPa SO 5.4mph /  8.7km/h 13.8mph /  22.2km/h 34.7% 0in /  0.0mm
13:49 83.7 °F /  28.7 °C 52.7 °F /  11.5 °C 30.1in /  1018.7hPa SO 5.5mph /  8.9km/h 10.4mph /  16.7km/h 34.5% 0in /  0.0mm
13:54 83.8 °F /  28.8 °C 52.9 °F /  11.6 °C 30.1in /  1018.7hPa SO 5.9mph /  9.5km/h 11.5mph /  18.5km/h 34.6% 0in /  0.0mm
13:59 84.2 °F /  29 °C 53.2 °F /  11.8 °C 30.1in /  1018.6hPa SO 5.7mph /  9.2km/h 10.7mph /  17.2km/h 34.7% 0in /  0.0mm
14:04 84.4 °F /  29.1 °C 52.9 °F /  11.6 °C 30.1in /  1018.6hPa SO 5.4mph /  8.7km/h 11.8mph /  19km/h 34.1% 0in /  0.0mm
14:09 84.4 °F /  29.1 °C 53.1 °F /  11.7 °C 30.1in /  1018.6hPa SO 5.7mph /  9.1km/h 13.8mph /  22.2km/h 34.2% 0in /  0.0mm
14:14 84 °F /  28.9 °C 52.7 °F /  11.5 °C 30.1in /  1018.5hPa OSO 6.2mph /  10km/h 10.4mph /  16.7km/h 34.1% 0in /  0.0mm
14:19 84.4 °F /  29.1 °C 53.1 °F /  11.7 °C 30.1in /  1018.5hPa SO 6.2mph /  10km/h 12.7mph /  20.4km/h 34.3% 0in /  0.0mm
14:24 84.2 °F /  29 °C 52.9 °F /  11.6 °C 30.1in /  1018.5hPa SO 6.2mph /  10km/h 11.5mph /  18.5km/h 34% 0in /  0.0mm
14:29 84.2 °F /  29 °C 53.4 °F /  11.9 °C 30.1in /  1018.2hPa SO 6.1mph /  9.8km/h 13.8mph /  22.2km/h 34.8% 0in /  0.0mm
14:34 84 °F /  28.9 °C 53.2 °F /  11.8 °C 30.1in /  1018.2hPa OSO 5.9mph /  9.5km/h 10.4mph /  16.7km/h 34.7% 0in /  0.0mm
14:39 84 °F /  28.9 °C 53.2 °F /  11.8 °C 30.1in /  1018.2hPa Oeste 6.1mph /  9.8km/h 9.7mph /  15.6km/h 34.7% 0in /  0.0mm
14:44 84 °F /  28.9 °C 52.9 °F /  11.6 °C 30.1in /  1018.1hPa OSO 6.4mph /  10.3km/h 6.2mph /  10km/h 34.3% 0in /  0.0mm
14:49 84.2 °F /  29 °C 53.1 °F /  11.7 °C 30.1in /  1018.1hPa NO 5.2mph /  8.4km/h 6.9mph /  11.1km/h 34.4% 0in /  0.0mm
14:54 84.6 °F /  29.2 °C 54 °F /  12.2 °C 30.1in /  1018.1hPa Oeste 2.9mph /  4.7km/h 10.7mph /  17.2km/h 35% 0in /  0.0mm
14:59 84.7 °F /  29.3 °C 54.1 °F /  12.3 °C 30.1in /  1017.9hPa OSO 4mph /  6.5km/h 15mph /  24.1km/h 35% 0in /  0.0mm
15:04 84.7 °F /  29.3 °C 54.1 °F /  12.3 °C 30.1in /  1017.9hPa SO 6.2mph /  10km/h 11.5mph /  18.5km/h 35% 0in /  0.0mm
15:09 84.7 °F /  29.3 °C 54.1 °F /  12.3 °C 30.1in /  1017.9hPa OSO 6.1mph /  9.8km/h 8.1mph /  13km/h 35% 0in /  0.0mm
15:14 84.9 °F /  29.4 °C 54.1 °F /  12.3 °C 30.1in /  1017.8hPa OSO 5.9mph /  9.5km/h 7.4mph /  11.9km/h 35% 0in /  0.0mm
15:19 85.1 °F /  29.5 °C 54 °F /  12.2 °C 30.1in /  1017.8hPa SO 5.3mph /  8.5km/h 10.4mph /  16.7km/h 34.4% 0in /  0.0mm
15:24 85.1 °F /  29.5 °C 53.6 °F /  12 °C 30.1in /  1017.8hPa Oeste 4mph /  6.4km/h 8.1mph /  13km/h 34% 0in /  0.0mm
15:29 85.3 °F /  29.6 °C 53.8 °F /  12.1 °C 30.1in /  1017.6hPa SSO 4.1mph /  6.6km/h 8.5mph /  13.7km/h 34.2% 0in /  0.0mm
15:34 85.3 °F /  29.6 °C 54.3 °F /  12.4 °C 30.1in /  1017.6hPa SO 4.3mph /  6.9km/h 8.5mph /  13.7km/h 34.7% 0in /  0.0mm
15:39 85.5 °F /  29.7 °C 54.5 °F /  12.5 °C 30.1in /  1017.6hPa Sur 4.2mph /  6.8km/h 6.9mph /  11.1km/h 34.6% 0in /  0.0mm
15:44 85.8 °F /  29.9 °C 54.5 °F /  12.5 °C 30.1in /  1017.5hPa NO 4mph /  6.4km/h 9.2mph /  14.8km/h 34.5% 0in /  0.0mm
15:49 85.8 °F /  29.9 °C 54.3 °F /  12.4 °C 30.1in /  1017.5hPa ONO 4mph /  6.4km/h 5.4mph /  8.7km/h 34% 0in /  0.0mm
15:54 85.8 °F /  29.9 °C 54.3 °F /  12.4 °C 30.1in /  1017.5hPa ONO 4mph /  6.4km/h 9.2mph /  14.8km/h 34% 0in /  0.0mm
15:59 85.6 °F /  29.8 °C 54 °F /  12.2 °C 30in /  1017.4hPa ONO 4.1mph /  6.6km/h 6.2mph /  10km/h 34% 0in /  0.0mm
16:04 85.6 °F /  29.8 °C 54.1 °F /  12.3 °C 30in /  1017.4hPa NNO 4.3mph /  6.9km/h 4.6mph /  7.4km/h 34% 0in /  0.0mm
16:09 86 °F /  30 °C 54.7 °F /  12.6 °C 30in /  1017.4hPa NNE 3.6mph /  5.8km/h 5.2mph /  8.4km/h 34.3% 0in /  0.0mm
16:14 86.4 °F /  30.2 °C 54.7 °F /  12.6 °C 30in /  1017.3hPa ESE 2mph /  3.2km/h 3.5mph /  5.6km/h 34% 0in /  0.0mm
16:19 86.5 °F /  30.3 °C 54.5 °F /  12.5 °C 30in /  1017.3hPa OSO 2.3mph /  3.7km/h 10.7mph /  17.2km/h 33.4% 0in /  0.0mm
16:24 86.5 °F /  30.3 °C 54.1 °F /  12.3 °C 30in /  1017.3hPa ONO 2.9mph /  4.7km/h 9.2mph /  14.8km/h 33.1% 0in /  0.0mm
16:29 86.4 °F /  30.2 °C 54.5 °F /  12.5 °C 30in /  1017.3hPa NO 3.4mph /  5.4km/h 5.8mph /  9.3km/h 33.9% 0in /  0.0mm
16:34 86.4 °F /  30.2 °C 53.8 °F /  12.1 °C 30in /  1017.3hPa Oeste 4.3mph /  6.9km/h 11.5mph /  18.5km/h 33% 0in /  0.0mm
16:39 86 °F /  30 °C 53.8 °F /  12.1 °C 30in /  1017.3hPa Oeste 4.3mph /  6.9km/h 7.4mph /  11.9km/h 33.1% 0in /  0.0mm
16:44 85.8 °F /  29.9 °C 54 °F /  12.2 °C 30in /  1017.1hPa Oeste 4.7mph /  7.6km/h 8.1mph /  13km/h 33.7% 0in /  0.0mm
16:49 85.6 °F /  29.8 °C 54 °F /  12.2 °C 30in /  1017.1hPa OSO 4.7mph /  7.6km/h 5.9mph /  9.5km/h 34% 0in /  0.0mm
16:54 85.6 °F /  29.8 °C 54.1 °F /  12.3 °C 30in /  1017.1hPa SSO 4.7mph /  7.6km/h 5.9mph /  9.5km/h 34% 0in /  0.0mm
16:59 85.8 °F /  29.9 °C 54.1 °F /  12.3 °C 30in /  1017.1hPa OSO 4.7mph /  7.6km/h 6.2mph /  10km/h 34% 0in /  0.0mm
17:04 85.8 °F /  29.9 °C 54.1 °F /  12.3 °C 30in /  1017.1hPa SSO 4.2mph /  6.8km/h 6.2mph /  10km/h 34% 0in /  0.0mm
17:09 85.6 °F /  29.8 °C 54.1 °F /  12.3 °C 30in /  1017.1hPa SSO 4mph /  6.4km/h 8.1mph /  13km/h 34.1% 0in /  0.0mm
17:14 85.6 °F /  29.8 °C 54.3 °F /  12.4 °C 30in /  1016.9hPa SSO 4mph /  6.4km/h 8.1mph /  13km/h 34.5% 0in /  0.0mm
17:19 85.6 °F /  29.8 °C 54.5 °F /  12.5 °C 30in /  1016.9hPa Sur 4.4mph /  7.1km/h 10.7mph /  17.2km/h 34.7% 0in /  0.0mm
17:24 85.5 °F /  29.7 °C 54.3 °F /  12.4 °C 30in /  1017.0hPa Sur 5.2mph /  8.4km/h 10.4mph /  16.7km/h 34.4% 0in /  0.0mm
17:29 85.5 °F /  29.7 °C 54.7 °F /  12.6 °C 30in /  1017.0hPa Sur 5.6mph /  9km/h 10.2mph /  16.4km/h 35% 0in /  0.0mm
17:34 85.5 °F /  29.7 °C 54.1 °F /  12.3 °C 30in /  1017.0hPa Sur 6.4mph /  10.3km/h 10.4mph /  16.7km/h 34.4% 0in /  0.0mm
17:39 85.6 °F /  29.8 °C 54.3 °F /  12.4 °C 30in /  1017.0hPa Sur 6.4mph /  10.3km/h 10.4mph /  16.7km/h 34.3% 0in /  0.0mm
17:44 86 °F /  30 °C 54.3 °F /  12.4 °C 30in /  1016.9hPa Sur 6.4mph /  10.3km/h 13.8mph /  22.2km/h 34% 0in /  0.0mm
17:49 86.2 °F /  30.1 °C 54.7 °F /  12.6 °C 30in /  1016.9hPa Sur 6.2mph /  10km/h 8.1mph /  13km/h 34.2% 0in /  0.0mm
17:54 86.4 °F /  30.2 °C 54.7 °F /  12.6 °C 30in /  1016.9hPa Sur 5.9mph /  9.5km/h 10.4mph /  16.7km/h 34% 0in /  0.0mm
17:59 86.4 °F /  30.2 °C 54.7 °F /  12.6 °C 30in /  1016.8hPa Sur 5.9mph /  9.5km/h 10.4mph /  16.7km/h 34% 0in /  0.0mm
18:04 86.5 °F /  30.3 °C 54.9 °F /  12.7 °C 30in /  1016.8hPa Sur 5.9mph /  9.5km/h 8.5mph /  13.7km/h 34% 0in /  0.0mm
18:09 86.5 °F /  30.3 °C 54.9 °F /  12.7 °C 30in /  1016.8hPa SSE 5.9mph /  9.5km/h 9.2mph /  14.8km/h 34% 0in /  0.0mm
18:14 86.5 °F /  30.3 °C 54.9 °F /  12.7 °C 30in /  1016.7hPa SSE 5.9mph /  9.5km/h 8.1mph /  13km/h 34.2% 0in /  0.0mm
18:19 86.5 °F /  30.3 °C 55 °F /  12.8 °C 30in /  1016.7hPa SSE 5.7mph /  9.2km/h 9.7mph /  15.6km/h 34.3% 0in /  0.0mm
18:24 86.4 °F /  30.2 °C 55.9 °F /  13.3 °C 30in /  1016.7hPa Sur 5.4mph /  8.7km/h 10.7mph /  17.2km/h 35.6% 0in /  0.0mm
18:29 86 °F /  30 °C 56.7 °F /  13.7 °C 30in /  1016.7hPa SE 5.7mph /  9.1km/h 12.5mph /  20.1km/h 36.9% 0in /  0.0mm
18:34 85.5 °F /  29.7 °C 57.2 °F /  14 °C 30in /  1016.7hPa ESE 6.2mph /  10km/h 13.8mph /  22.2km/h 38.2% 0in /  0.0mm
18:39 85.1 °F /  29.5 °C 57.4 °F /  14.1 °C 30in /  1016.7hPa ESE 6.6mph /  10.6km/h 12.7mph /  20.4km/h 39% 0in /  0.0mm
18:44 84.7 °F /  29.3 °C 57.7 °F /  14.3 °C 30in /  1016.7hPa SE 7.4mph /  11.9km/h 13.5mph /  21.7km/h 40% 0in /  0.0mm
18:49 84.4 °F /  29.1 °C 57.7 °F /  14.3 °C 30in /  1016.7hPa SE 7.5mph /  12km/h 13.8mph /  22.2km/h 40.4% 0in /  0.0mm
18:54 84 °F /  28.9 °C 57.7 °F /  14.3 °C 30in /  1016.8hPa SE 7.6mph /  12.2km/h 10.4mph /  16.7km/h 41% 0in /  0.0mm
18:59 84 °F /  28.9 °C 57.7 °F /  14.3 °C 30in /  1016.8hPa SE 7.1mph /  11.4km/h 9.2mph /  14.8km/h 41% 0in /  0.0mm
19:04 84 °F /  28.9 °C 57.9 °F /  14.4 °C 30in /  1016.8hPa SE 6.2mph /  10km/h 8.1mph /  13km/h 41% 0in /  0.0mm
19:09 84.4 °F /  29.1 °C 58.1 °F /  14.5 °C 30in /  1016.8hPa SE 5.9mph /  9.5km/h 10.4mph /  16.7km/h 41% 0in /  0.0mm
19:14 84 °F /  28.9 °C 58.5 °F /  14.7 °C 30in /  1016.7hPa ESE 5.2mph /  8.4km/h 11.8mph /  19km/h 42% 0in /  0.0mm
19:19 83.7 °F /  28.7 °C 58.8 °F /  14.9 °C 30in /  1016.7hPa ESE 5.5mph /  8.9km/h 8.1mph /  13km/h 42.9% 0in /  0.0mm
19:24 83.5 °F /  28.6 °C 58.6 °F /  14.8 °C 30in /  1016.8hPa ESE 6.2mph /  10km/h 8.1mph /  13km/h 43.1% 0in /  0.0mm
19:29 83.3 °F /  28.5 °C 59 °F /  15 °C 30in /  1016.8hPa ESE 5.6mph /  9km/h 6.9mph /  11.1km/h 44% 0in /  0.0mm
19:34 82.9 °F /  28.3 °C 58.8 °F /  14.9 °C 30in /  1016.8hPa SE 4.3mph /  6.9km/h 8.5mph /  13.7km/h 44% 0in /  0.0mm
19:39 82.9 °F /  28.3 °C 58.8 °F /  14.9 °C 30in /  1016.9hPa ESE 4.6mph /  7.4km/h 9.7mph /  15.6km/h 44.1% 0in /  0.0mm
19:44 82.6 °F /  28.1 °C 58.5 °F /  14.7 °C 30in /  1016.9hPa SE 5.2mph /  8.4km/h 10.4mph /  16.7km/h 44% 0in /  0.0mm
19:49 82.2 °F /  27.9 °C 58.1 °F /  14.5 °C 30in /  1016.9hPa SE 5.5mph /  8.9km/h 10.7mph /  17.2km/h 44% 0in /  0.0mm
19:54 82 °F /  27.8 °C 57.9 °F /  14.4 °C 30in /  1016.9hPa SE 6.2mph /  10km/h 9.2mph /  14.8km/h 44% 0in /  0.0mm
19:59 81.7 °F /  27.6 °C 57.7 °F /  14.3 °C 30in /  1016.9hPa SE 6.2mph /  10km/h 10.7mph /  17.2km/h 44% 0in /  0.0mm
20:04 81.3 °F /  27.4 °C 57.4 °F /  14.1 °C 30in /  1016.9hPa SE 6.2mph /  10km/h 13mph /  20.9km/h 44% 0in /  0.0mm
20:09 81.1 °F /  27.3 °C 57.4 °F /  14.1 °C 30in /  1017.0hPa SE 6.3mph /  10.1km/h 12.7mph /  20.4km/h 44.3% 0in /  0.0mm
20:14 81.1 °F /  27.3 °C 57.7 °F /  14.3 °C 30in /  1017.0hPa SE 6.4mph /  10.3km/h 10.4mph /  16.7km/h 45% 0in /  0.0mm
20:19 81 °F /  27.2 °C 57.6 °F /  14.2 °C 30in /  1017.0hPa SSE 6.2mph /  10km/h 8.1mph /  13km/h 45% 0in /  0.0mm
20:24 80.8 °F /  27.1 °C 57.6 °F /  14.2 °C 30in /  1017.3hPa SSE 5.9mph /  9.5km/h 9.2mph /  14.8km/h 45% 0in /  0.0mm
20:29 80.6 °F /  27 °C 57.6 °F /  14.2 °C 30in /  1017.3hPa SE 5.4mph /  8.7km/h 8.1mph /  13km/h 45.3% 0in /  0.0mm
20:34 80.4 °F /  26.9 °C 57.7 °F /  14.3 °C 30in /  1017.3hPa SE 4.3mph /  6.9km/h 2.4mph /  3.9km/h 46% 0in /  0.0mm
20:39 80.4 °F /  26.9 °C 57.7 °F /  14.3 °C 30.1in /  1017.5hPa NE 3.4mph /  5.5km/h 4.7mph /  7.6km/h 46% 0in /  0.0mm
20:44 80.2 °F /  26.8 °C 57.6 °F /  14.2 °C 30.1in /  1017.5hPa North 1.4mph /  2.3km/h 4.7mph /  7.6km/h 46.1% 0in /  0.0mm
20:49 79.9 °F /  26.6 °C 57.9 °F /  14.4 °C 30.1in /  1017.5hPa NNE 1.9mph /  3.1km/h 4.6mph /  7.4km/h 47% 0in /  0.0mm
20:54 79.5 °F /  26.4 °C 57.6 °F /  14.2 °C 30.1in /  1017.8hPa NNE 3.1mph /  5km/h 5.2mph /  8.4km/h 47% 0in /  0.0mm
20:59 79.3 °F /  26.3 °C 57.4 °F /  14.1 °C 30.1in /  1017.8hPa NNE 3.1mph /  5km/h 7.4mph /  11.9km/h 47.1% 0in /  0.0mm
21:04 79.3 °F /  26.3 °C 57.9 °F /  14.4 °C 30.1in /  1017.8hPa NNE 3.1mph /  5km/h 6.9mph /  11.1km/h 48% 0in /  0.0mm
21:09 79.2 °F /  26.2 °C 58.1 °F /  14.5 °C 30.1in /  1018.0hPa NNO 3.3mph /  5.3km/h 4.6mph /  7.4km/h 48.6% 0in /  0.0mm
21:14 78.8 °F /  26 °C 58.3 °F /  14.6 °C 30.1in /  1018.0hPa NNO 3.6mph /  5.8km/h 5.4mph /  8.7km/h 49.6% 0in /  0.0mm
21:19 78.4 °F /  25.8 °C 58.8 °F /  14.9 °C 30.1in /  1018.0hPa NE 3.4mph /  5.5km/h 7.4mph /  11.9km/h 51% 0in /  0.0mm
21:24 78.1 °F /  25.6 °C 59 °F /  15 °C 30.1in /  1018.3hPa NE 3.1mph /  5km/h 5.8mph /  9.3km/h 52% 0in /  0.0mm
21:29 77.7 °F /  25.4 °C 59.2 °F /  15.1 °C 30.1in /  1018.3hPa NNE 3.1mph /  5km/h 5.8mph /  9.3km/h 52.8% 0in /  0.0mm
21:34 77.5 °F /  25.3 °C 59.4 °F /  15.2 °C 30.1in /  1018.3hPa NNE 3.1mph /  5km/h 4.7mph /  7.6km/h 53.6% 0in /  0.0mm
21:39 77.4 °F /  25.2 °C 59.4 °F /  15.2 °C 30.1in /  1018.3hPa NNE 2.9mph /  4.6km/h 3.6mph /  5.8km/h 54% 0in /  0.0mm
21:44 77.4 °F /  25.2 °C 59.9 °F /  15.5 °C 30.1in /  1018.3hPa NO 2.4mph /  3.9km/h 5.9mph /  9.5km/h 55% 0in /  0.0mm
21:49 77.2 °F /  25.1 °C 59.7 °F /  15.4 °C 30.1in /  1018.3hPa NO 2.5mph /  4.1km/h 5.8mph /  9.3km/h 55.1% 0in /  0.0mm
21:54 76.8 °F /  24.9 °C 60.1 °F /  15.6 °C 30.1in /  1018.6hPa NO 2.9mph /  4.7km/h 6.9mph /  11.1km/h 56.4% 0in /  0.0mm
21:59 76.5 °F /  24.7 °C 60.6 °F /  15.9 °C 30.1in /  1018.6hPa NO 2.9mph /  4.7km/h 5.9mph /  9.5km/h 58% 0in /  0.0mm
22:04 76.3 °F /  24.6 °C 60.8 °F /  16 °C 30.1in /  1018.6hPa NO 2.9mph /  4.7km/h 6.2mph /  10km/h 59% 0in /  0.0mm
22:09 75.9 °F /  24.4 °C 61 °F /  16.1 °C 30.1in /  1018.7hPa NO 3mph /  4.8km/h 5.8mph /  9.3km/h 60% 0in /  0.0mm
22:14 75.7 °F /  24.3 °C 61.2 °F /  16.2 °C 30.1in /  1018.7hPa NO 3.1mph /  5km/h 5.8mph /  9.3km/h 60.5% 0in /  0.0mm
22:19 75.6 °F /  24.2 °C 61.3 °F /  16.3 °C 30.1in /  1018.7hPa NO 3.2mph /  5.2km/h 5.9mph /  9.5km/h 61.5% 0in /  0.0mm
22:24 75.6 °F /  24.2 °C 61.5 °F /  16.4 °C 30.1in /  1018.8hPa NO 3.6mph /  5.8km/h 5.8mph /  9.3km/h 62% 0in /  0.0mm
22:29 75.4 °F /  24.1 °C 61.7 °F /  16.5 °C 30.1in /  1018.8hPa NO 3.4mph /  5.5km/h 4.7mph /  7.6km/h 62.6% 0in /  0.0mm
22:34 75 °F /  23.9 °C 61.5 °F /  16.4 °C 30.1in /  1018.8hPa NO 3.1mph /  5km/h 4.6mph /  7.4km/h 63% 0in /  0.0mm
22:39 74.8 °F /  23.8 °C 61.5 °F /  16.4 °C 30.1in /  1018.9hPa NO 2.9mph /  4.6km/h 4.6mph /  7.4km/h 63% 0in /  0.0mm
22:44 74.8 °F /  23.8 °C 61.7 °F /  16.5 °C 30.1in /  1018.9hPa NNO 2.4mph /  3.9km/h 4.6mph /  7.4km/h 63.7% 0in /  0.0mm
22:49 74.7 °F /  23.7 °C 61.7 °F /  16.5 °C 30.1in /  1018.9hPa NNE 2.3mph /  3.7km/h 4mph /  6.4km/h 64% 0in /  0.0mm
22:54 74.7 °F /  23.7 °C 61.9 °F /  16.6 °C 30.1in /  1019.1hPa North 2mph /  3.2km/h 4.6mph /  7.4km/h 64.6% 0in /  0.0mm
22:59 74.7 °F /  23.7 °C 62.1 °F /  16.7 °C 30.1in /  1019.1hPa NNO 2.2mph /  3.5km/h 4.3mph /  6.9km/h 65% 0in /  0.0mm
23:04 74.5 °F /  23.6 °C 61.9 °F /  16.6 °C 30.1in /  1019.1hPa North 2.4mph /  3.9km/h 4.6mph /  7.4km/h 65% 0in /  0.0mm
23:09 74.5 °F /  23.6 °C 61.9 °F /  16.6 °C 30.1in /  1019.1hPa North 2.3mph /  3.7km/h 3.6mph /  5.8km/h 65.1% 0in /  0.0mm
23:14 74.5 °F /  23.6 °C 62.2 °F /  16.8 °C 30.1in /  1019.1hPa North 2mph /  3.2km/h 5.2mph /  8.4km/h 66% 0in /  0.0mm
23:19 74.1 °F /  23.4 °C 62.1 °F /  16.7 °C 30.1in /  1019.1hPa NNE 2.1mph /  3.4km/h 4.6mph /  7.4km/h 66% 0in /  0.0mm
23:24 74.1 °F /  23.4 °C 62.1 °F /  16.7 °C 30.1in /  1019.2hPa NNE 2.4mph /  3.9km/h 3.5mph /  5.6km/h 66% 0in /  0.0mm
23:29 74.1 °F /  23.4 °C 62.1 °F /  16.7 °C 30.1in /  1019.2hPa NNO 2.3mph /  3.7km/h 4.7mph /  7.6km/h 66% 0in /  0.0mm
23:34 74.1 °F /  23.4 °C 62.4 °F /  16.9 °C 30.1in /  1019.2hPa NO 2mph /  3.2km/h 4.6mph /  7.4km/h 66.8% 0in /  0.0mm
23:39 73.9 °F /  23.3 °C 62.2 °F /  16.8 °C 30.1in /  1019.3hPa NO 2mph /  3.2km/h 4.6mph /  7.4km/h 67% 0in /  0.0mm
23:44 73.8 °F /  23.2 °C 62.4 °F /  16.9 °C 30.1in /  1019.3hPa NO 2mph /  3.2km/h 3.5mph /  5.6km/h 67.9% 0in /  0.0mm
23:49 73.8 °F /  23.2 °C 62.4 °F /  16.9 °C 30.1in /  1019.3hPa NO 1.9mph /  3.1km/h 3.6mph /  5.8km/h 68% 0in /  0.0mm
23:54 73.6 °F /  23.1 °C 62.8 °F /  17.1 °C 30.1in /  1019.4hPa NNE 1.8mph /  2.9km/h 4.6mph /  7.4km/h 69% 0in /  0.0mm
23:59 73.4 °F /  23 °C 62.8 °F /  17.1 °C 30.1in /  1019.4hPa NNE 2.2mph /  3.5km/h 4.7mph /  7.6km/h 69.7% 0in /  0.0mm
Murcia-Puente Tocinos, España
Compliments of Weather Underground - 3.25 mb

La estación de MeteoMurcia.com, publica sus datos en los siguientes proyectos:

Weather Underground PWS IMURCIAP2 Meteoclimatic www.awekas.at

W3Counter
Web Analytics